sensor_id;sensor_type;location;lat;lon;timestamp;P1;durP1;ratioP1;P2;durP2;ratioP2
31336;SDS011;22846;42.654;23.314;2023-04-03T00:02:02;12.25;;;9.27;;
31336;SDS011;22846;42.654;23.314;2023-04-03T00:04:27;11.30;;;8.43;;
31336;SDS011;22846;42.654;23.314;2023-04-03T00:06:53;11.77;;;8.43;;
31336;SDS011;22846;42.654;23.314;2023-04-03T00:09:18;10.70;;;8.13;;
31336;SDS011;22846;42.654;23.314;2023-04-03T00:11:43;10.73;;;8.00;;
31336;SDS011;22846;42.654;23.314;2023-04-03T00:14:10;10.65;;;7.93;;
31336;SDS011;22846;42.654;23.314;2023-04-03T00:16:35;10.68;;;7.45;;
31336;SDS011;22846;42.654;23.314;2023-04-03T00:19:01;11.27;;;8.18;;
31336;SDS011;22846;42.654;23.314;2023-04-03T00:21:26;10.85;;;7.63;;
31336;SDS011;22846;42.654;23.314;2023-04-03T00:23:51;10.63;;;7.80;;
31336;SDS011;22846;42.654;23.314;2023-04-03T00:26:17;10.25;;;7.82;;
31336;SDS011;22846;42.654;23.314;2023-04-03T00:28:42;10.32;;;7.82;;
31336;SDS011;22846;42.654;23.314;2023-04-03T00:31:07;9.43;;;7.10;;
31336;SDS011;22846;42.654;23.314;2023-04-03T00:33:33;9.43;;;7.18;;
31336;SDS011;22846;42.654;23.314;2023-04-03T00:35:58;9.82;;;7.60;;
31336;SDS011;22846;42.654;23.314;2023-04-03T00:38:24;9.98;;;7.38;;
31336;SDS011;22846;42.654;23.314;2023-04-03T00:40:49;10.60;;;6.97;;
31336;SDS011;22846;42.654;23.314;2023-04-03T00:43:17;9.80;;;7.10;;
31336;SDS011;22846;42.654;23.314;2023-04-03T00:45:53;8.80;;;7.10;;
31336;SDS011;22846;42.654;23.314;2023-04-03T00:48:20;9.40;;;7.07;;
31336;SDS011;22846;42.654;23.314;2023-04-03T00:50:50;8.90;;;6.72;;
31336;SDS011;22846;42.654;23.314;2023-04-03T00:53:18;8.55;;;6.72;;
31336;SDS011;22846;42.654;23.314;2023-04-03T00:55:47;9.10;;;6.85;;
31336;SDS011;22846;42.654;23.314;2023-04-03T00:58:15;8.40;;;6.20;;
31336;SDS011;22846;42.654;23.314;2023-04-03T01:00:43;8.30;;;6.30;;
31336;SDS011;22846;42.654;23.314;2023-04-03T01:03:13;8.20;;;6.32;;
31336;SDS011;22846;42.654;23.314;2023-04-03T01:05:38;7.65;;;6.03;;
31336;SDS011;22846;42.654;23.314;2023-04-03T01:08:05;7.45;;;5.85;;
31336;SDS011;22846;42.654;23.314;2023-04-03T01:10:31;8.70;;;5.95;;
31336;SDS011;22846;42.654;23.314;2023-04-03T01:12:56;8.07;;;5.82;;
31336;SDS011;22846;42.654;23.314;2023-04-03T01:15:23;7.57;;;5.88;;
31336;SDS011;22846;42.654;23.314;2023-04-03T01:17:54;7.50;;;5.63;;
31336;SDS011;22846;42.654;23.314;2023-04-03T01:25:35;6.40;;;5.50;;
31336;SDS011;22846;42.654;23.314;2023-04-03T01:28:03;8.25;;;5.65;;
31336;SDS011;22846;42.654;23.314;2023-04-03T01:30:33;7.65;;;5.25;;
31336;SDS011;22846;42.654;23.314;2023-04-03T01:33:01;8.05;;;5.25;;
31336;SDS011;22846;42.654;23.314;2023-04-03T01:35:27;7.22;;;5.15;;
31336;SDS011;22846;42.654;23.314;2023-04-03T01:37:53;7.07;;;5.53;;
31336;SDS011;22846;42.654;23.314;2023-04-03T01:40:18;7.43;;;5.57;;
31336;SDS011;22846;42.654;23.314;2023-04-03T01:42:43;6.90;;;5.20;;
31336;SDS011;22846;42.654;23.314;2023-04-03T01:45:09;5.60;;;4.68;;
31336;SDS011;22846;42.654;23.314;2023-04-03T01:47:35;6.88;;;5.00;;
31336;SDS011;22846;42.654;23.314;2023-04-03T01:50:00;6.72;;;5.10;;
31336;SDS011;22846;42.654;23.314;2023-04-03T01:52:26;7.28;;;4.75;;
31336;SDS011;22846;42.654;23.314;2023-04-03T01:54:51;6.32;;;4.68;;
31336;SDS011;22846;42.654;23.314;2023-04-03T01:57:17;6.90;;;5.15;;
31336;SDS011;22846;42.654;23.314;2023-04-03T01:59:42;6.32;;;4.70;;
31336;SDS011;22846;42.654;23.314;2023-04-03T02:02:08;5.63;;;4.22;;
31336;SDS011;22846;42.654;23.314;2023-04-03T02:04:33;5.57;;;4.28;;
31336;SDS011;22846;42.654;23.314;2023-04-03T02:06:59;5.40;;;4.50;;
31336;SDS011;22846;42.654;23.314;2023-04-03T02:09:24;5.25;;;4.30;;
31336;SDS011;22846;42.654;23.314;2023-04-03T02:11:51;6.05;;;4.35;;
31336;SDS011;22846;42.654;23.314;2023-04-03T02:14:16;5.90;;;4.43;;
31336;SDS011;22846;42.654;23.314;2023-04-03T02:16:42;5.88;;;4.35;;
31336;SDS011;22846;42.654;23.314;2023-04-03T02:19:07;6.10;;;4.63;;
31336;SDS011;22846;42.654;23.314;2023-04-03T02:21:33;5.30;;;4.45;;
31336;SDS011;22846;42.654;23.314;2023-04-03T02:23:58;5.70;;;4.70;;
31336;SDS011;22846;42.654;23.314;2023-04-03T02:26:23;4.78;;;4.05;;
31336;SDS011;22846;42.654;23.314;2023-04-03T02:28:49;5.60;;;4.30;;
31336;SDS011;22846;42.654;23.314;2023-04-03T02:31:15;4.75;;;3.72;;
31336;SDS011;22846;42.654;23.314;2023-04-03T02:33:40;4.60;;;3.80;;
31336;SDS011;22846;42.654;23.314;2023-04-03T02:36:06;4.47;;;3.78;;
31336;SDS011;22846;42.654;23.314;2023-04-03T02:38:32;5.13;;;3.78;;
31336;SDS011;22846;42.654;23.314;2023-04-03T02:41:01;4.40;;;3.80;;
31336;SDS011;22846;42.654;23.314;2023-04-03T02:43:28;4.10;;;3.45;;
31336;SDS011;22846;42.654;23.314;2023-04-03T02:45:53;4.88;;;3.80;;
31336;SDS011;22846;42.654;23.314;2023-04-03T02:48:19;4.65;;;3.53;;
31336;SDS011;22846;42.654;23.314;2023-04-03T02:50:45;4.55;;;3.47;;
31336;SDS011;22846;42.654;23.314;2023-04-03T02:53:10;5.03;;;3.55;;
31336;SDS011;22846;42.654;23.314;2023-04-03T02:55:36;3.85;;;3.45;;
31336;SDS011;22846;42.654;23.314;2023-04-03T02:58:01;4.63;;;3.50;;
31336;SDS011;22846;42.654;23.314;2023-04-03T03:00:27;4.20;;;3.50;;
31336;SDS011;22846;42.654;23.314;2023-04-03T03:02:52;4.20;;;3.42;;
31336;SDS011;22846;42.654;23.314;2023-04-03T03:05:17;4.72;;;3.92;;
31336;SDS011;22846;42.654;23.314;2023-04-03T03:07:43;4.25;;;3.50;;
31336;SDS011;22846;42.654;23.314;2023-04-03T03:10:08;4.55;;;3.60;;
31336;SDS011;22846;42.654;23.314;2023-04-03T03:12:34;4.40;;;3.72;;
31336;SDS011;22846;42.654;23.314;2023-04-03T03:14:59;4.43;;;3.42;;
31336;SDS011;22846;42.654;23.314;2023-04-03T03:17:25;4.30;;;3.28;;
31336;SDS011;22846;42.654;23.314;2023-04-03T03:19:50;4.20;;;3.25;;
31336;SDS011;22846;42.654;23.314;2023-04-03T03:22:16;3.28;;;2.97;;
31336;SDS011;22846;42.654;23.314;2023-04-03T03:24:41;4.93;;;3.00;;
31336;SDS011;22846;42.654;23.314;2023-04-03T03:27:07;3.78;;;3.00;;
31336;SDS011;22846;42.654;23.314;2023-04-03T03:29:32;3.47;;;2.85;;
31336;SDS011;22846;42.654;23.314;2023-04-03T03:31:57;3.60;;;2.90;;
31336;SDS011;22846;42.654;23.314;2023-04-03T03:34:23;3.38;;;2.83;;
31336;SDS011;22846;42.654;23.314;2023-04-03T03:36:48;3.30;;;2.58;;
31336;SDS011;22846;42.654;23.314;2023-04-03T03:39:13;3.63;;;2.80;;
31336;SDS011;22846;42.654;23.314;2023-04-03T03:41:39;3.55;;;2.50;;
31336;SDS011;22846;42.654;23.314;2023-04-03T03:44:04;3.70;;;2.67;;
31336;SDS011;22846;42.654;23.314;2023-04-03T03:46:30;3.22;;;2.63;;
31336;SDS011;22846;42.654;23.314;2023-04-03T03:48:55;2.88;;;2.42;;
31336;SDS011;22846;42.654;23.314;2023-04-03T03:51:21;5.43;;;2.83;;
31336;SDS011;22846;42.654;23.314;2023-04-03T03:53:46;3.45;;;2.95;;
31336;SDS011;22846;42.654;23.314;2023-04-03T03:56:12;3.92;;;2.78;;
31336;SDS011;22846;42.654;23.314;2023-04-03T03:58:37;4.13;;;2.78;;
31336;SDS011;22846;42.654;23.314;2023-04-03T04:01:03;4.30;;;2.83;;
31336;SDS011;22846;42.654;23.314;2023-04-03T04:03:30;17.65;;;8.40;;
31336;SDS011;22846;42.654;23.314;2023-04-03T04:05:56;13.98;;;7.40;;
31336;SDS011;22846;42.654;23.314;2023-04-03T04:08:22;13.73;;;6.05;;
31336;SDS011;22846;42.654;23.314;2023-04-03T04:10:48;14.38;;;5.70;;
31336;SDS011;22846;42.654;23.314;2023-04-03T04:13:13;8.68;;;5.72;;
31336;SDS011;22846;42.654;23.314;2023-04-03T04:15:38;9.90;;;5.35;;
31336;SDS011;22846;42.654;23.314;2023-04-03T04:18:04;8.25;;;4.95;;
31336;SDS011;22846;42.654;23.314;2023-04-03T04:20:29;9.60;;;4.22;;
31336;SDS011;22846;42.654;23.314;2023-04-03T04:22:55;8.93;;;4.38;;
31336;SDS011;22846;42.654;23.314;2023-04-03T04:25:20;7.20;;;3.75;;
31336;SDS011;22846;42.654;23.314;2023-04-03T04:27:45;5.85;;;3.60;;
31336;SDS011;22846;42.654;23.314;2023-04-03T04:30:11;9.75;;;4.90;;
31336;SDS011;22846;42.654;23.314;2023-04-03T04:32:37;10.82;;;4.85;;
31336;SDS011;22846;42.654;23.314;2023-04-03T04:35:02;23.52;;;6.38;;
31336;SDS011;22846;42.654;23.314;2023-04-03T04:37:29;8.40;;;5.18;;
31336;SDS011;22846;42.654;23.314;2023-04-03T04:39:54;28.55;;;7.18;;
31336;SDS011;22846;42.654;23.314;2023-04-03T04:42:20;21.83;;;6.28;;
31336;SDS011;22846;42.654;23.314;2023-04-03T04:44:45;21.20;;;6.95;;
31336;SDS011;22846;42.654;23.314;2023-04-03T04:47:11;16.65;;;5.60;;
31336;SDS011;22846;42.654;23.314;2023-04-03T04:49:36;17.65;;;5.18;;
31336;SDS011;22846;42.654;23.314;2023-04-03T04:52:01;11.45;;;5.78;;
31336;SDS011;22846;42.654;23.314;2023-04-03T04:54:27;16.67;;;5.72;;
31336;SDS011;22846;42.654;23.314;2023-04-03T04:56:52;10.07;;;5.75;;
31336;SDS011;22846;42.654;23.314;2023-04-03T04:59:18;13.52;;;5.40;;
31336;SDS011;22846;42.654;23.314;2023-04-03T05:01:43;12.63;;;5.28;;
31336;SDS011;22846;42.654;23.314;2023-04-03T05:04:08;10.77;;;4.70;;
31336;SDS011;22846;42.654;23.314;2023-04-03T05:06:34;16.20;;;5.00;;
31336;SDS011;22846;42.654;23.314;2023-04-03T05:09:00;17.52;;;5.68;;
31336;SDS011;22846;42.654;23.314;2023-04-03T05:11:26;11.95;;;5.05;;
31336;SDS011;22846;42.654;23.314;2023-04-03T05:13:51;10.63;;;4.90;;
31336;SDS011;22846;42.654;23.314;2023-04-03T05:16:17;12.88;;;5.05;;
31336;SDS011;22846;42.654;23.314;2023-04-03T05:18:42;7.95;;;4.18;;
31336;SDS011;22846;42.654;23.314;2023-04-03T05:21:08;11.52;;;4.90;;
31336;SDS011;22846;42.654;23.314;2023-04-03T05:23:33;9.73;;;4.57;;
31336;SDS011;22846;42.654;23.314;2023-04-03T05:25:58;12.27;;;4.45;;
31336;SDS011;22846;42.654;23.314;2023-04-03T05:28:24;12.02;;;4.90;;
31336;SDS011;22846;42.654;23.314;2023-04-03T05:30:56;8.32;;;4.50;;
31336;SDS011;22846;42.654;23.314;2023-04-03T05:33:23;7.95;;;4.18;;
31336;SDS011;22846;42.654;23.314;2023-04-03T05:35:49;9.45;;;4.28;;
31336;SDS011;22846;42.654;23.314;2023-04-03T05:38:14;12.13;;;4.22;;
31336;SDS011;22846;42.654;23.314;2023-04-03T05:40:40;9.25;;;4.07;;
31336;SDS011;22846;42.654;23.314;2023-04-03T05:43:05;11.18;;;4.47;;
31336;SDS011;22846;42.654;23.314;2023-04-03T05:45:31;9.20;;;3.95;;
31336;SDS011;22846;42.654;23.314;2023-04-03T05:47:56;12.00;;;4.00;;
31336;SDS011;22846;42.654;23.314;2023-04-03T05:50:22;10.00;;;4.43;;
31336;SDS011;22846;42.654;23.314;2023-04-03T05:52:48;11.10;;;4.45;;
31336;SDS011;22846;42.654;23.314;2023-04-03T05:55:15;7.53;;;3.92;;
31336;SDS011;22846;42.654;23.314;2023-04-03T05:57:40;8.45;;;3.58;;
31336;SDS011;22846;42.654;23.314;2023-04-03T06:00:07;7.90;;;3.45;;
31336;SDS011;22846;42.654;23.314;2023-04-03T06:02:34;6.32;;;3.50;;
31336;SDS011;22846;42.654;23.314;2023-04-03T06:05:00;6.18;;;3.33;;
31336;SDS011;22846;42.654;23.314;2023-04-03T06:07:26;5.40;;;3.50;;
31336;SDS011;22846;42.654;23.314;2023-04-03T06:09:53;6.72;;;3.53;;
31336;SDS011;22846;42.654;23.314;2023-04-03T06:12:20;7.95;;;4.07;;
31336;SDS011;22846;42.654;23.314;2023-04-03T06:14:47;8.02;;;3.90;;
31336;SDS011;22846;42.654;23.314;2023-04-03T06:17:13;8.07;;;3.72;;
31336;SDS011;22846;42.654;23.314;2023-04-03T06:19:39;6.50;;;3.28;;
31336;SDS011;22846;42.654;23.314;2023-04-03T06:22:04;5.78;;;3.30;;
31336;SDS011;22846;42.654;23.314;2023-04-03T06:24:30;7.95;;;3.50;;
31336;SDS011;22846;42.654;23.314;2023-04-03T06:26:56;8.80;;;3.70;;
31336;SDS011;22846;42.654;23.314;2023-04-03T06:29:22;7.45;;;3.40;;
31336;SDS011;22846;42.654;23.314;2023-04-03T06:31:48;7.82;;;3.63;;
31336;SDS011;22846;42.654;23.314;2023-04-03T06:34:15;5.97;;;3.28;;
31336;SDS011;22846;42.654;23.314;2023-04-03T06:36:41;7.68;;;3.40;;
31336;SDS011;22846;42.654;23.314;2023-04-03T06:39:08;5.18;;;3.20;;
31336;SDS011;22846;42.654;23.314;2023-04-03T06:41:38;6.32;;;3.50;;
31336;SDS011;22846;42.654;23.314;2023-04-03T06:44:03;6.95;;;3.55;;
31336;SDS011;22846;42.654;23.314;2023-04-03T06:46:29;8.23;;;3.53;;
31336;SDS011;22846;42.654;23.314;2023-04-03T06:48:54;6.25;;;3.50;;
31336;SDS011;22846;42.654;23.314;2023-04-03T06:51:26;7.38;;;3.40;;
31336;SDS011;22846;42.654;23.314;2023-04-03T06:53:54;6.65;;;3.05;;
31336;SDS011;22846;42.654;23.314;2023-04-03T06:56:21;5.28;;;3.47;;
31336;SDS011;22846;42.654;23.314;2023-04-03T06:58:47;6.07;;;3.13;;
31336;SDS011;22846;42.654;23.314;2023-04-03T07:01:13;4.85;;;3.10;;
31336;SDS011;22846;42.654;23.314;2023-04-03T07:03:41;5.20;;;3.25;;
31336;SDS011;22846;42.654;23.314;2023-04-03T07:06:07;4.15;;;2.95;;
31336;SDS011;22846;42.654;23.314;2023-04-03T07:08:35;5.80;;;3.30;;
31336;SDS011;22846;42.654;23.314;2023-04-03T07:11:01;7.43;;;3.38;;
31336;SDS011;22846;42.654;23.314;2023-04-03T07:13:27;6.43;;;3.00;;
31336;SDS011;22846;42.654;23.314;2023-04-03T07:15:52;4.38;;;2.60;;
31336;SDS011;22846;42.654;23.314;2023-04-03T07:18:18;6.75;;;3.40;;
31336;SDS011;22846;42.654;23.314;2023-04-03T07:20:44;6.05;;;3.50;;
31336;SDS011;22846;42.654;23.314;2023-04-03T07:23:10;6.78;;;3.35;;
31336;SDS011;22846;42.654;23.314;2023-04-03T07:25:36;4.25;;;3.00;;
31336;SDS011;22846;42.654;23.314;2023-04-03T07:28:02;4.68;;;3.15;;
31336;SDS011;22846;42.654;23.314;2023-04-03T07:30:28;4.60;;;3.20;;
31336;SDS011;22846;42.654;23.314;2023-04-03T07:32:54;4.65;;;2.92;;
31336;SDS011;22846;42.654;23.314;2023-04-03T07:35:20;5.72;;;2.85;;
31336;SDS011;22846;42.654;23.314;2023-04-03T07:37:45;6.78;;;3.10;;
31336;SDS011;22846;42.654;23.314;2023-04-03T07:40:11;3.85;;;2.85;;
31336;SDS011;22846;42.654;23.314;2023-04-03T07:42:37;5.18;;;2.97;;
31336;SDS011;22846;42.654;23.314;2023-04-03T07:45:03;4.18;;;2.65;;
31336;SDS011;22846;42.654;23.314;2023-04-03T07:47:29;5.38;;;2.78;;
31336;SDS011;22846;42.654;23.314;2023-04-03T07:49:55;5.97;;;2.72;;
31336;SDS011;22846;42.654;23.314;2023-04-03T07:52:22;4.88;;;2.60;;
31336;SDS011;22846;42.654;23.314;2023-04-03T07:54:48;3.95;;;2.58;;
31336;SDS011;22846;42.654;23.314;2023-04-03T07:57:13;4.18;;;2.75;;
31336;SDS011;22846;42.654;23.314;2023-04-03T07:59:39;3.95;;;2.63;;
31336;SDS011;22846;42.654;23.314;2023-04-03T08:02:07;4.72;;;2.80;;
31336;SDS011;22846;42.654;23.314;2023-04-03T08:04:34;4.85;;;2.70;;
31336;SDS011;22846;42.654;23.314;2023-04-03T08:07:00;3.60;;;2.83;;
31336;SDS011;22846;42.654;23.314;2023-04-03T08:09:25;3.60;;;2.70;;
31336;SDS011;22846;42.654;23.314;2023-04-03T08:11:51;4.85;;;2.60;;
31336;SDS011;22846;42.654;23.314;2023-04-03T08:14:18;3.63;;;2.60;;
31336;SDS011;22846;42.654;23.314;2023-04-03T08:16:45;5.32;;;3.08;;
31336;SDS011;22846;42.654;23.314;2023-04-03T08:19:11;3.83;;;2.83;;
31336;SDS011;22846;42.654;23.314;2023-04-03T08:21:40;3.10;;;2.22;;
31336;SDS011;22846;42.654;23.314;2023-04-03T08:24:06;3.25;;;2.20;;
31336;SDS011;22846;42.654;23.314;2023-04-03T08:26:32;3.97;;;2.92;;
31336;SDS011;22846;42.654;23.314;2023-04-03T08:28:57;6.50;;;2.63;;
31336;SDS011;22846;42.654;23.314;2023-04-03T08:31:22;4.25;;;2.58;;
31336;SDS011;22846;42.654;23.314;2023-04-03T08:33:48;6.28;;;2.80;;
31336;SDS011;22846;42.654;23.314;2023-04-03T08:36:21;5.82;;;2.58;;
31336;SDS011;22846;42.654;23.314;2023-04-03T08:38:50;5.45;;;2.70;;
31336;SDS011;22846;42.654;23.314;2023-04-03T08:41:20;4.55;;;2.60;;
31336;SDS011;22846;42.654;23.314;2023-04-03T08:47:00;5.90;;;2.53;;
31336;SDS011;22846;42.654;23.314;2023-04-03T08:57:59;6.47;;;2.70;;
31336;SDS011;22846;42.654;23.314;2023-04-03T09:00:50;6.20;;;3.00;;
31336;SDS011;22846;42.654;23.314;2023-04-03T09:03:16;9.07;;;3.85;;
31336;SDS011;22846;42.654;23.314;2023-04-03T09:08:31;11.50;;;3.55;;
31336;SDS011;22846;42.654;23.314;2023-04-03T09:21:52;5.28;;;3.00;;
31336;SDS011;22846;42.654;23.314;2023-04-03T09:24:18;9.80;;;3.85;;
31336;SDS011;22846;42.654;23.314;2023-04-03T09:26:54;8.18;;;2.65;;
31336;SDS011;22846;42.654;23.314;2023-04-03T09:29:25;5.15;;;2.95;;
31336;SDS011;22846;42.654;23.314;2023-04-03T09:31:58;4.60;;;2.70;;
31336;SDS011;22846;42.654;23.314;2023-04-03T09:34:27;8.27;;;3.13;;
31336;SDS011;22846;42.654;23.314;2023-04-03T09:37:01;4.90;;;2.92;;
31336;SDS011;22846;42.654;23.314;2023-04-03T09:39:31;7.00;;;3.25;;
31336;SDS011;22846;42.654;23.314;2023-04-03T09:42:19;7.53;;;3.08;;
31336;SDS011;22846;42.654;23.314;2023-04-03T09:44:57;8.18;;;2.92;;
31336;SDS011;22846;42.654;23.314;2023-04-03T09:47:35;6.38;;;2.97;;
31336;SDS011;22846;42.654;23.314;2023-04-03T09:52:43;6.60;;;2.85;;
31336;SDS011;22846;42.654;23.314;2023-04-03T09:55:13;6.43;;;3.00;;
31336;SDS011;22846;42.654;23.314;2023-04-03T09:57:42;7.75;;;2.88;;
31336;SDS011;22846;42.654;23.314;2023-04-03T10:00:52;4.97;;;2.83;;
31336;SDS011;22846;42.654;23.314;2023-04-03T10:02:58;3.92;;;2.60;;
31336;SDS011;22846;42.654;23.314;2023-04-03T10:10:40;6.20;;;2.75;;
31336;SDS011;22846;42.654;23.314;2023-04-03T10:13:11;5.32;;;2.70;;
31336;SDS011;22846;42.654;23.314;2023-04-03T10:15:47;8.13;;;2.70;;
31336;SDS011;22846;42.654;23.314;2023-04-03T10:20:52;4.20;;;2.50;;
31336;SDS011;22846;42.654;23.314;2023-04-03T10:28:57;5.35;;;2.83;;
31336;SDS011;22846;42.654;23.314;2023-04-03T10:34:24;6.07;;;2.33;;
31336;SDS011;22846;42.654;23.314;2023-04-03T10:39:57;5.18;;;2.55;;
31336;SDS011;22846;42.654;23.314;2023-04-03T10:42:41;6.82;;;2.97;;
31336;SDS011;22846;42.654;23.314;2023-04-03T10:45:30;4.63;;;2.63;;
31336;SDS011;22846;42.654;23.314;2023-04-03T10:53:56;5.75;;;2.70;;
31336;SDS011;22846;42.654;23.314;2023-04-03T11:01:55;4.20;;;2.60;;
31336;SDS011;22846;42.654;23.314;2023-04-03T11:04:25;6.78;;;2.70;;
31336;SDS011;22846;42.654;23.314;2023-04-03T11:07:37;6.20;;;2.67;;
31336;SDS011;22846;42.654;23.314;2023-04-03T11:12:21;3.88;;;2.38;;
31336;SDS011;22846;42.654;23.314;2023-04-03T11:15:05;5.57;;;2.60;;
31336;SDS011;22846;42.654;23.314;2023-04-03T11:17:39;3.75;;;2.55;;
31336;SDS011;22846;42.654;23.314;2023-04-03T11:20:18;7.45;;;2.35;;
31336;SDS011;22846;42.654;23.314;2023-04-03T11:22:53;5.07;;;2.60;;
31336;SDS011;22846;42.654;23.314;2023-04-03T11:27:54;4.68;;;2.30;;
31336;SDS011;22846;42.654;23.314;2023-04-03T11:36:10;3.95;;;2.40;;
31336;SDS011;22846;42.654;23.314;2023-04-03T11:38:43;3.50;;;2.33;;
31336;SDS011;22846;42.654;23.314;2023-04-03T11:41:11;4.65;;;2.33;;
31336;SDS011;22846;42.654;23.314;2023-04-03T11:43:42;3.78;;;2.50;;
31336;SDS011;22846;42.654;23.314;2023-04-03T11:46:22;4.80;;;2.33;;
31336;SDS011;22846;42.654;23.314;2023-04-03T11:48:49;4.47;;;2.40;;
31336;SDS011;22846;42.654;23.314;2023-04-03T11:53:53;3.22;;;2.20;;
31336;SDS011;22846;42.654;23.314;2023-04-03T12:04:09;3.20;;;2.20;;
31336;SDS011;22846;42.654;23.314;2023-04-03T12:09:22;2.67;;;1.88;;
31336;SDS011;22846;42.654;23.314;2023-04-03T12:11:51;3.58;;;2.33;;
31336;SDS011;22846;42.654;23.314;2023-04-03T12:14:17;3.70;;;2.28;;
31336;SDS011;22846;42.654;23.314;2023-04-03T12:16:44;3.72;;;2.13;;
31336;SDS011;22846;42.654;23.314;2023-04-03T12:24:31;3.92;;;2.15;;
31336;SDS011;22846;42.654;23.314;2023-04-03T12:41:11;4.35;;;1.95;;
31336;SDS011;22846;42.654;23.314;2023-04-03T12:44:02;2.45;;;2.08;;
31336;SDS011;22846;42.654;23.314;2023-04-03T12:46:49;2.70;;;1.83;;
31336;SDS011;22846;42.654;23.314;2023-04-03T12:51:53;3.45;;;2.00;;
31336;SDS011;22846;42.654;23.314;2023-04-03T12:54:21;2.78;;;1.88;;
31336;SDS011;22846;42.654;23.314;2023-04-03T12:56:51;3.13;;;2.13;;
31336;SDS011;22846;42.654;23.314;2023-04-03T12:59:18;6.55;;;2.35;;
31336;SDS011;22846;42.654;23.314;2023-04-03T13:01:55;3.47;;;1.90;;
31336;SDS011;22846;42.654;23.314;2023-04-03T13:04:22;3.28;;;1.90;;
31336;SDS011;22846;42.654;23.314;2023-04-03T13:06:48;4.32;;;1.90;;
31336;SDS011;22846;42.654;23.314;2023-04-03T13:09:32;2.85;;;1.80;;
31336;SDS011;22846;42.654;23.314;2023-04-03T13:14:23;3.60;;;1.70;;
31336;SDS011;22846;42.654;23.314;2023-04-03T13:16:56;2.85;;;1.70;;
31336;SDS011;22846;42.654;23.314;2023-04-03T13:19:31;6.47;;;1.80;;
31336;SDS011;22846;42.654;23.314;2023-04-03T13:22:01;5.28;;;1.63;;
31336;SDS011;22846;42.654;23.314;2023-04-03T13:24:30;5.75;;;1.60;;
31336;SDS011;22846;42.654;23.314;2023-04-03T13:27:00;2.70;;;1.50;;
31336;SDS011;22846;42.654;23.314;2023-04-03T13:29:28;2.25;;;1.50;;
31336;SDS011;22846;42.654;23.314;2023-04-03T13:31:57;3.53;;;1.80;;
31336;SDS011;22846;42.654;23.314;2023-04-03T13:34:25;3.20;;;1.70;;
31336;SDS011;22846;42.654;23.314;2023-04-03T13:41:47;4.32;;;1.40;;
31336;SDS011;22846;42.654;23.314;2023-04-03T13:46:46;7.22;;;2.33;;
31336;SDS011;22846;42.654;23.314;2023-04-03T13:51:48;9.30;;;2.75;;
31336;SDS011;22846;42.654;23.314;2023-04-03T13:57:14;5.22;;;2.70;;
31336;SDS011;22846;42.654;23.314;2023-04-03T13:59:41;4.43;;;2.95;;
31336;SDS011;22846;42.654;23.314;2023-04-03T14:07:18;3.25;;;2.50;;
31336;SDS011;22846;42.654;23.314;2023-04-03T14:09:46;3.33;;;2.40;;
31336;SDS011;22846;42.654;23.314;2023-04-03T14:12:19;2.85;;;2.30;;
31336;SDS011;22846;42.654;23.314;2023-04-03T14:14:51;3.38;;;2.10;;
31336;SDS011;22846;42.654;23.314;2023-04-03T14:17:18;4.65;;;2.60;;
31336;SDS011;22846;42.654;23.314;2023-04-03T14:19:46;4.47;;;2.63;;
31336;SDS011;22846;42.654;23.314;2023-04-03T14:24:44;2.92;;;2.10;;
31336;SDS011;22846;42.654;23.314;2023-04-03T14:27:15;2.33;;;1.67;;
31336;SDS011;22846;42.654;23.314;2023-04-03T14:29:44;2.50;;;2.00;;
31336;SDS011;22846;42.654;23.314;2023-04-03T14:32:13;3.15;;;2.13;;
31336;SDS011;22846;42.654;23.314;2023-04-03T14:34:40;3.58;;;1.90;;
31336;SDS011;22846;42.654;23.314;2023-04-03T14:37:09;3.78;;;2.13;;
31336;SDS011;22846;42.654;23.314;2023-04-03T14:39:36;3.42;;;2.25;;
31336;SDS011;22846;42.654;23.314;2023-04-03T14:42:02;3.45;;;1.95;;
31336;SDS011;22846;42.654;23.314;2023-04-03T14:44:28;2.97;;;1.85;;
31336;SDS011;22846;42.654;23.314;2023-04-03T14:46:53;4.82;;;1.98;;
31336;SDS011;22846;42.654;23.314;2023-04-03T14:49:22;6.85;;;2.05;;
31336;SDS011;22846;42.654;23.314;2023-04-03T14:51:51;4.47;;;1.80;;
31336;SDS011;22846;42.654;23.314;2023-04-03T14:54:19;6.40;;;1.83;;
31336;SDS011;22846;42.654;23.314;2023-04-03T14:59:16;6.90;;;1.98;;
31336;SDS011;22846;42.654;23.314;2023-04-03T15:01:43;6.20;;;2.10;;
31336;SDS011;22846;42.654;23.314;2023-04-03T15:04:12;5.90;;;1.98;;
31336;SDS011;22846;42.654;23.314;2023-04-03T15:06:39;3.50;;;1.90;;
31336;SDS011;22846;42.654;23.314;2023-04-03T15:09:17;3.33;;;1.92;;
31336;SDS011;22846;42.654;23.314;2023-04-03T15:14:14;6.25;;;1.85;;
31336;SDS011;22846;42.654;23.314;2023-04-03T15:16:40;5.88;;;1.65;;
31336;SDS011;22846;42.654;23.314;2023-04-03T15:19:05;2.42;;;1.67;;
31336;SDS011;22846;42.654;23.314;2023-04-03T15:21:31;3.05;;;1.65;;
31336;SDS011;22846;42.654;23.314;2023-04-03T15:23:56;6.13;;;1.90;;
31336;SDS011;22846;42.654;23.314;2023-04-03T15:26:21;2.80;;;1.98;;
31336;SDS011;22846;42.654;23.314;2023-04-03T15:28:47;4.05;;;2.28;;
31336;SDS011;22846;42.654;23.314;2023-04-03T15:31:13;4.57;;;1.67;;
31336;SDS011;22846;42.654;23.314;2023-04-03T15:33:38;4.93;;;2.00;;
31336;SDS011;22846;42.654;23.314;2023-04-03T15:36:04;3.90;;;2.20;;
31336;SDS011;22846;42.654;23.314;2023-04-03T15:38:30;4.22;;;1.98;;
31336;SDS011;22846;42.654;23.314;2023-04-03T15:40:55;11.90;;;8.30;;
31336;SDS011;22846;42.654;23.314;2023-04-03T15:43:21;35.95;;;20.42;;
31336;SDS011;22846;42.654;23.314;2023-04-03T15:45:47;25.25;;;11.07;;
31336;SDS011;22846;42.654;23.314;2023-04-03T15:48:13;21.77;;;8.20;;
31336;SDS011;22846;42.654;23.314;2023-04-03T15:50:38;19.60;;;9.40;;
31336;SDS011;22846;42.654;23.314;2023-04-03T15:53:04;18.70;;;7.97;;
31336;SDS011;22846;42.654;23.314;2023-04-03T15:55:31;17.13;;;6.90;;
31336;SDS011;22846;42.654;23.314;2023-04-03T15:57:57;17.52;;;6.95;;
31336;SDS011;22846;42.654;23.314;2023-04-03T16:00:24;14.88;;;5.88;;
31336;SDS011;22846;42.654;23.314;2023-04-03T16:02:54;17.77;;;7.35;;
31336;SDS011;22846;42.654;23.314;2023-04-03T16:05:22;17.10;;;7.10;;
31336;SDS011;22846;42.654;23.314;2023-04-03T16:07:48;12.77;;;6.25;;
31336;SDS011;22846;42.654;23.314;2023-04-03T16:10:14;8.85;;;5.00;;
31336;SDS011;22846;42.654;23.314;2023-04-03T16:12:41;12.63;;;6.03;;
31336;SDS011;22846;42.654;23.314;2023-04-03T16:15:06;14.40;;;5.55;;
31336;SDS011;22846;42.654;23.314;2023-04-03T16:17:33;11.85;;;5.97;;
31336;SDS011;22846;42.654;23.314;2023-04-03T16:20:00;15.13;;;6.10;;
31336;SDS011;22846;42.654;23.314;2023-04-03T16:22:27;12.02;;;5.72;;
31336;SDS011;22846;42.654;23.314;2023-04-03T16:24:53;12.73;;;5.32;;
31336;SDS011;22846;42.654;23.314;2023-04-03T16:27:20;13.80;;;4.97;;
31336;SDS011;22846;42.654;23.314;2023-04-03T16:29:46;11.73;;;4.45;;
31336;SDS011;22846;42.654;23.314;2023-04-03T16:32:11;8.93;;;4.47;;
31336;SDS011;22846;42.654;23.314;2023-04-03T16:34:38;13.73;;;4.93;;
31336;SDS011;22846;42.654;23.314;2023-04-03T16:37:05;10.95;;;4.25;;
31336;SDS011;22846;42.654;23.314;2023-04-03T16:39:31;12.65;;;4.97;;
31336;SDS011;22846;42.654;23.314;2023-04-03T16:41:56;10.13;;;4.85;;
31336;SDS011;22846;42.654;23.314;2023-04-03T16:44:21;17.52;;;4.60;;
31336;SDS011;22846;42.654;23.314;2023-04-03T16:46:47;16.60;;;5.18;;
31336;SDS011;22846;42.654;23.314;2023-04-03T16:49:12;7.78;;;4.25;;
31336;SDS011;22846;42.654;23.314;2023-04-03T16:51:38;13.48;;;4.00;;